Time;durP1;ratioP1;P1;durP2;ratioP2;P2;SDS_P1;SDS_P2;PMS_P1;PMS_P2;Temp;Humidity;BMP_temperature;BMP_pressure;BME280_temperature;BME280_humidity;BME280_pressure;Samples;Min_cycle;Max_cycle;Signal;HPM_P1;HPM_P2
2022/11/04 00:01:20;;;;;;;4.60;4.20;;;;;;;13.27;75.39;94677.28;5071505;28;20200;-81
2022/11/04 00:03:48;;;;;;;5.17;4.23;;;;;;;13.27;74.99;94674.69;5071267;28;20228;-79
2022/11/04 00:06:15;;;;;;;9.33;4.50;;;;;;;13.21;74.49;94670.38;5071314;28;20209;-82
2022/11/04 00:08:41;;;;;;;7.73;4.10;;;;;;;13.23;74.60;94682.09;5071139;28;20200;-81
2022/11/04 00:13:53;;;;;;;4.30;3.53;;;;;;;13.17;74.06;94690.69;5070538;28;20219;-81
2022/11/04 00:19:05;;;;;;;4.53;3.43;;;;;;;13.19;73.50;94691.25;5070942;28;20211;-81
2022/11/04 00:29:57;;;;;;;4.03;3.10;;;;;;;13.13;73.06;94710.97;5065789;28;20288;-81
2022/11/04 00:35:10;;;;;;;3.20;2.80;;;;;;;13.06;73.24;94717.22;5070566;28;20310;-81
2022/11/04 00:37:37;;;;;;;3.43;3.13;;;;;;;13.06;73.59;94720.59;5070904;28;20208;-80
2022/11/04 00:40:05;;;;;;;2.83;2.50;;;;;;;12.96;73.49;94724.66;5069962;28;20212;-78
2022/11/04 00:42:32;;;;;;;3.10;2.67;;;;;;;12.93;73.71;94723.28;5061683;28;20189;-80
2022/11/04 00:44:58;;;;;;;3.07;2.70;;;;;;;12.96;73.68;94732.41;5070909;28;20235;-81
2022/11/04 00:47:25;;;;;;;3.33;2.90;;;;;;;12.87;73.99;94736.25;5070753;28;20197;-80
2022/11/04 00:49:51;;;;;;;3.27;2.53;;;;;;;12.82;73.91;94738.69;5070205;28;20196;-81
2022/11/04 00:52:19;;;;;;;2.73;2.50;;;;;;;12.72;74.31;94747.69;5069978;28;20205;-81
2022/11/04 00:54:46;;;;;;;2.73;2.40;;;;;;;12.76;74.70;94738.50;5070672;28;20708;-81
2022/11/04 00:57:13;;;;;;;3.20;2.63;;;;;;;12.80;74.70;94742.25;5070387;28;20204;-81
2022/11/04 00:59:40;;;;;;;2.60;2.40;;;;;;;12.85;75.14;94751.97;5070411;28;20211;-80
2022/11/04 01:02:07;;;;;;;2.63;2.43;;;;;;;12.87;75.63;94756.94;5070137;28;20201;-80
2022/11/04 01:04:33;;;;;;;2.40;2.10;;;;;;;12.68;76.89;94761.25;5070164;28;20225;-81
2022/11/04 01:07:00;;;;;;;2.80;1.90;;;;;;;12.53;78.00;94761.50;5070009;28;20221;-81
2022/11/04 01:09:28;;;;;;;2.20;2.00;;;;;;;12.50;78.83;94769.69;5070317;28;20201;-81
2022/11/04 01:11:54;;;;;;;3.73;1.90;;;;;;;12.41;79.94;94755.44;5070497;28;20201;-80
2022/11/04 01:14:22;;;;;;;2.37;2.00;;;;;;;12.41;80.14;94763.97;5069883;28;20236;-80
2022/11/04 01:16:49;;;;;;;2.10;1.90;;;;;;;12.36;80.88;94775.91;5070915;28;20211;-79
2022/11/04 01:19:17;;;;;;;1.90;1.80;;;;;;;12.40;81.84;94782.25;5070812;28;20201;-81
2022/11/04 01:21:44;;;;;;;2.00;1.80;;;;;;;12.30;82.24;94781.94;5070420;28;20197;-80
2022/11/04 01:24:11;;;;;;;3.53;1.97;;;;;;;12.13;82.68;94788.53;5073130;28;20225;-79
2022/11/04 01:26:38;;;;;;;2.10;1.90;;;;;;;12.06;83.77;94783.41;5074255;28;20661;-81
2022/11/04 01:29:05;;;;;;;2.53;2.03;;;;;;;12.00;84.00;94785.03;5073496;28;20196;-80
2022/11/04 01:31:32;;;;;;;1.70;1.60;;;;;;;11.91;84.75;94778.53;5073531;28;20691;-80
2022/11/04 01:33:59;;;;;;;1.70;1.60;;;;;;;11.91;85.04;94767.41;5074053;28;20248;-80
2022/11/04 01:36:27;;;;;;;3.73;1.80;;;;;;;11.88;84.79;94781.50;5072805;28;20204;-79
2022/11/04 01:38:55;;;;;;;1.70;1.60;;;;;;;11.92;85.04;94774.94;5065514;28;20247;-80
2022/11/04 01:41:26;;;;;;;3.00;1.37;;;;;;;11.98;83.91;94778.47;5073455;28;20200;-79
2022/11/04 01:43:55;;;;;;;3.37;1.60;;;;;;;12.10;83.45;94769.91;5073605;28;20765;-81
2022/11/04 01:46:35;;;;;;;2.60;1.60;;;;;;;12.08;82.79;94756.41;5073145;28;20220;-79
2022/11/04 01:49:08;;;;;;;1.47;1.30;;;;;;;12.11;83.31;94750.06;5077120;28;20201;-79
2022/11/04 01:51:37;;;;;;;1.60;1.50;;;;;;;12.06;82.44;94745.50;5074113;28;20668;-80
2022/11/04 01:54:05;;;;;;;1.50;1.40;;;;;;;12.06;82.40;94740.34;5074150;28;20220;-82
2022/11/04 01:56:33;;;;;;;1.30;1.20;;;;;;;12.05;81.44;94735.41;5073804;28;20200;-80
2022/11/04 01:59:07;;;;;;;1.40;1.30;;;;;;;12.01;81.55;94741.97;5074390;28;20200;-81
2022/11/04 02:01:34;;;;;;;1.37;1.27;;;;;;;12.12;81.15;94737.94;5074028;28;20201;-79
2022/11/04 02:04:24;;;;;;;2.30;1.30;;;;;;;12.18;80.42;94737.09;5073758;28;20591;-81
2022/11/04 02:06:49;;;;;;;1.10;1.00;;;;;;;12.20;80.31;94729.94;5073414;28;20292;-81
2022/11/04 02:09:17;;;;;;;1.53;1.10;;;;;;;12.27;79.74;94725.56;5073828;28;20228;-81
2022/11/04 02:14:30;;;;;;;1.00;1.00;;;;;;;12.29;79.18;94726.94;5073040;28;20313;-82
2022/11/04 02:17:04;;;;;;;1.00;1.00;;;;;;;12.34;78.79;94731.44;5073460;28;20216;-80
2022/11/04 02:19:52;;;;;;;0.93;0.93;;;;;;;12.34;77.88;94736.59;5073074;28;20209;-80
2022/11/04 02:22:36;;;;;;;1.13;1.10;;;;;;;12.33;77.38;94732.44;5072971;28;20205;-82
2022/11/04 02:25:21;;;;;;;1.80;1.10;;;;;;;12.40;77.60;94741.75;5072963;28;20236;-81
2022/11/04 02:28:06;;;;;;;1.07;0.97;;;;;;;12.44;76.90;94742.91;5072484;28;20207;-81
2022/11/04 02:30:40;;;;;;;0.90;0.90;;;;;;;12.45;76.37;94741.13;5052318;28;20197;-80
2022/11/04 02:33:19;;;;;;;1.00;1.00;;;;;;;12.44;75.88;94744.72;5063489;28;20217;-81
2022/11/04 02:35:56;;;;;;;0.87;0.83;;;;;;;12.47;76.01;94748.66;5070541;28;20189;-80
2022/11/04 02:38:32;;;;;;;1.33;0.97;;;;;;;12.51;75.21;94748.00;5073736;28;20227;-81
2022/11/04 02:41:07;;;;;;;0.97;0.87;;;;;;;12.45;75.27;94746.28;5073074;28;20208;-81
2022/11/04 02:43:41;;;;;;;0.90;0.90;;;;;;;12.31;74.85;94745.59;5073582;28;20242;-81
2022/11/04 02:46:17;;;;;;;0.87;0.87;;;;;;;12.19;74.75;94751.59;5074170;28;20230;-81
2022/11/04 02:48:48;;;;;;;1.10;0.80;;;;;;;12.16;75.01;94745.06;5073481;28;20577;-80
2022/11/04 02:51:19;;;;;;;0.70;0.70;;;;;;;12.14;74.85;94756.56;5072647;28;20200;-82
2022/11/04 02:53:51;;;;;;;1.07;0.73;;;;;;;12.20;75.21;94753.19;5072630;28;20264;-80
2022/11/04 02:56:21;;;;;;;1.37;1.00;;;;;;;12.22;74.74;94748.59;5073339;28;20280;-81
2022/11/04 02:58:54;;;;;;;1.27;0.90;;;;;;;12.25;74.46;94748.19;5073682;28;20618;-80
2022/11/04 03:01:26;;;;;;;1.27;0.80;;;;;;;12.30;74.17;94746.59;5072367;28;20201;-80
2022/11/04 03:04:01;;;;;;;0.70;0.70;;;;;;;12.31;73.99;94743.00;5072129;28;20221;-81
2022/11/04 03:06:29;;;;;;;0.70;0.70;;;;;;;12.32;73.75;94738.59;5072536;28;20250;-80
2022/11/04 03:08:59;;;;;;;0.77;0.73;;;;;;;12.29;73.47;94731.31;5072129;28;20204;-80
2022/11/04 03:11:27;;;;;;;1.27;0.90;;;;;;;12.32;73.75;94730.88;5072084;28;20572;-81
2022/11/04 03:13:59;;;;;;;1.17;1.10;;;;;;;12.37;73.32;94728.47;5071259;28;20319;-80
2022/11/04 03:16:35;;;;;;;0.70;0.70;;;;;;;12.38;72.57;94728.25;5071865;28;20255;-81
2022/11/04 03:19:08;;;;;;;0.70;0.70;;;;;;;12.45;72.95;94731.59;5071376;28;20197;-80
2022/11/04 03:21:40;;;;;;;1.17;0.87;;;;;;;12.35;72.13;94733.03;5071954;28;20594;-80
2022/11/04 03:24:06;;;;;;;0.73;0.73;;;;;;;12.38;72.80;94736.00;5071448;28;20221;-80
2022/11/04 03:26:39;;;;;;;2.13;0.80;;;;;;;12.37;72.10;94738.78;5071568;28;20220;-80
2022/11/04 03:29:19;;;;;;;0.80;0.80;;;;;;;12.36;72.30;94750.09;5065459;28;20205;-81
2022/11/04 03:31:54;;;;;;;0.87;0.67;;;;;;;12.31;71.48;94744.78;5053419;28;20201;-80
2022/11/04 03:34:20;;;;;;;1.07;0.80;;;;;;;12.29;71.81;94747.59;5051770;28;20224;-80
2022/11/04 03:36:47;;;;;;;0.80;0.80;;;;;;;12.30;71.21;94736.25;5065498;28;20205;-80
2022/11/04 03:39:13;;;;;;;1.23;0.70;;;;;;;12.29;71.32;94739.03;5071135;28;20196;-81
2022/11/04 03:41:46;;;;;;;0.73;0.73;;;;;;;12.29;71.11;94734.69;5070570;28;20584;-81
2022/11/04 03:44:13;;;;;;;1.30;0.60;;;;;;;12.33;71.50;94732.44;5071501;28;20224;-81
2022/11/04 03:46:40;;;;;;;0.80;0.80;;;;;;;12.31;71.39;94726.72;5070364;28;20200;-80
2022/11/04 03:49:10;;;;;;;0.73;0.70;;;;;;;12.31;71.12;94730.09;5071617;28;20684;-81
2022/11/04 03:51:36;;;;;;;0.70;0.70;;;;;;;12.29;70.98;94726.13;5070632;28;20201;-81
2022/11/04 03:54:04;;;;;;;0.80;0.80;;;;;;;12.21;70.72;94734.91;5071067;28;20228;-81
2022/11/04 03:56:57;;;;;;;0.77;0.77;;;;;;;12.07;71.27;94739.34;5071068;28;20192;-80
2022/11/04 03:59:49;;;;;;;0.80;0.80;;;;;;;12.07;71.14;94731.63;5071385;28;20216;-80
2022/11/04 04:02:20;;;;;;;0.67;0.67;;;;;;;12.06;70.62;94721.50;5061816;28;20208;-81
2022/11/04 04:04:56;;;;;;;0.93;0.73;;;;;;;12.14;70.71;94716.06;5071125;28;20225;-80
2022/11/04 04:07:34;;;;;;;0.60;0.60;;;;;;;12.19;69.98;94721.41;5070806;28;20204;-80
2022/11/04 04:10:37;;;;;;;0.93;0.80;;;;;;;12.23;69.47;94712.28;5071500;28;20212;-81
2022/11/04 04:13:00;;;;;;;0.67;0.67;;;;;;;12.25;69.41;94710.28;5070479;28;20270;-81
2022/11/04 04:15:31;;;;;;;0.63;0.63;;;;;;;12.26;69.28;94706.69;5071076;28;20193;-79
2022/11/04 04:18:03;;;;;;;0.70;0.70;;;;;;;12.29;68.91;94710.66;5071392;28;20204;-79
2022/11/04 04:20:35;;;;;;;0.70;0.70;;;;;;;12.28;68.64;94711.66;5070824;28;20243;-82
2022/11/04 04:27:29;;;;;;;0.70;0.70;;;;;;;12.30;68.92;94718.19;5071057;28;20274;-80
2022/11/04 04:28:41;;;;;;;0.60;0.60;;;;;;;12.19;68.54;94723.22;5061955;28;20474;-81
2022/11/04 04:31:11;;;;;;;0.77;0.77;;;;;;;12.16;68.50;94721.81;5050984;28;20197;-81
2022/11/04 04:33:38;;;;;;;0.60;0.60;;;;;;;12.20;68.27;94714.47;5050075;28;20774;-80
2022/11/04 04:36:09;;;;;;;0.70;0.70;;;;;;;12.26;68.54;94721.38;5059845;28;20207;-80
2022/11/04 04:47:18;;;;;;;0.73;0.73;;;;;;;12.18;67.38;94719.03;5033873;28;20234;-79
2022/11/04 04:49:49;;;;;;;0.60;0.60;;;;;;;12.14;67.12;94739.31;5070485;28;20196;-81
2022/11/04 04:52:17;;;;;;;1.03;0.63;;;;;;;12.04;67.46;94734.59;5070575;28;20567;-80
2022/11/04 04:54:44;;;;;;;0.73;0.70;;;;;;;12.03;67.49;94734.81;5070190;28;20220;-81
2022/11/04 04:57:11;;;;;;;0.67;0.67;;;;;;;12.05;67.47;94737.97;5070530;28;20204;-81
2022/11/04 04:59:37;;;;;;;0.60;0.60;;;;;;;12.01;67.87;94732.44;5074370;28;20847;-82
2022/11/04 05:02:04;;;;;;;1.00;0.70;;;;;;;11.95;67.11;94729.88;5074689;28;20591;-81
2022/11/04 05:04:30;;;;;;;0.60;0.60;;;;;;;12.01;67.64;94735.00;5074409;28;20221;-82
2022/11/04 05:06:56;;;;;;;0.63;0.63;;;;;;;12.02;67.50;94736.59;5076639;28;20515;-79
2022/11/04 05:09:24;;;;;;;0.60;0.60;;;;;;;11.99;67.22;94725.88;5076767;28;20205;-80
2022/11/04 05:11:51;;;;;;;0.53;0.53;;;;;;;11.94;67.88;94739.41;5074465;28;20212;-81
2022/11/04 05:14:17;;;;;;;0.60;0.60;;;;;;;12.00;68.05;94750.69;5074410;28;20228;-80
2022/11/04 05:16:44;;;;;;;0.60;0.60;;;;;;;12.00;67.64;94750.69;5075487;28;20207;-81
2022/11/04 05:19:10;;;;;;;1.40;0.70;;;;;;;11.94;67.39;94749.72;5075398;28;20208;-82
2022/11/04 05:21:37;;;;;;;0.60;0.60;;;;;;;11.87;67.19;94746.38;5068264;28;20205;-80
2022/11/04 05:24:04;;;;;;;1.47;0.60;;;;;;;11.94;67.07;94729.06;5062667;28;20600;-81
2022/11/04 05:26:31;;;;;;;0.70;0.70;;;;;;;11.97;67.41;94723.50;5054514;28;20318;-81
2022/11/04 05:28:58;;;;;;;0.70;0.70;;;;;;;11.96;66.97;94729.66;5061308;28;20200;-81
2022/11/04 05:31:24;;;;;;;0.60;0.60;;;;;;;12.02;66.96;94728.84;5073746;28;20201;-80
2022/11/04 05:33:51;;;;;;;0.60;0.60;;;;;;;12.04;66.46;94724.28;5074227;28;20224;-81
2022/11/04 05:36:17;;;;;;;0.80;0.80;;;;;;;12.03;66.71;94725.28;5066087;28;20205;-80
2022/11/04 05:38:44;;;;;;;0.93;0.73;;;;;;;12.02;67.06;94734.00;5068997;28;20198;-80
2022/11/04 05:41:24;;;;;;;0.83;0.67;;;;;;;12.05;67.67;94738.75;5063920;28;20201;-81
2022/11/04 05:43:53;;;;;;;0.90;0.80;;;;;;;11.89;67.83;94749.56;5070305;28;20231;-82
2022/11/04 05:46:19;;;;;;;0.73;0.70;;;;;;;11.93;67.88;94748.13;5055342;28;20224;-81
2022/11/04 05:48:46;;;;;;;0.70;0.70;;;;;;;11.85;69.24;94753.53;5062951;28;20197;-81
2022/11/04 05:51:14;;;;;;;0.70;0.70;;;;;;;11.82;69.06;94756.53;5072837;28;20205;-81
2022/11/04 05:53:40;;;;;;;0.90;0.70;;;;;;;11.77;69.14;94748.59;5072377;28;20216;-80
2022/11/04 05:56:08;;;;;;;0.83;0.83;;;;;;;11.75;69.21;94745.41;5071138;28;20200;-81
2022/11/04 05:58:34;;;;;;;0.97;0.67;;;;;;;11.77;70.04;94749.38;5061906;28;20198;-80
2022/11/04 06:01:14;;;;;;;0.80;0.80;;;;;;;11.66;71.07;94746.63;5060333;28;20208;-81
2022/11/04 06:03:40;;;;;;;0.80;0.80;;;;;;;11.67;71.86;94746.44;5065939;28;20236;-80
2022/11/04 06:06:07;;;;;;;0.87;0.87;;;;;;;11.59;73.73;94746.63;5072648;28;20217;-80
2022/11/04 06:08:33;;;;;;;0.87;0.87;;;;;;;11.38;75.22;94760.56;5065536;28;20208;-81
2022/11/04 06:11:00;;;;;;;2.57;1.17;;;;;;;11.32;77.47;94748.50;5069815;28;20224;-80
2022/11/04 06:13:27;;;;;;;0.70;0.70;;;;;;;11.36;77.42;94743.72;5062131;28;20236;-80
2022/11/04 06:15:53;;;;;;;0.90;0.90;;;;;;;11.31;78.47;94754.66;5061681;28;20204;-81
2022/11/04 06:18:21;;;;;;;0.87;0.87;;;;;;;11.34;77.94;94767.16;5054869;28;20201;-80
2022/11/04 06:20:47;;;;;;;0.93;0.83;;;;;;;11.37;78.50;94766.72;5069639;28;20193;-79
2022/11/04 06:23:17;;;;;;;1.30;0.90;;;;;;;11.41;79.15;94773.06;5058769;28;20221;-81
2022/11/04 06:25:46;;;;;;;2.10;1.00;;;;;;;11.41;78.88;94769.69;5052333;28;20715;-80
2022/11/04 06:28:12;;;;;;;1.00;0.90;;;;;;;11.46;79.57;94762.16;5053017;28;20802;-81
2022/11/04 06:30:39;;;;;;;3.50;1.20;;;;;;;11.43;81.62;94758.19;5064779;28;20692;-80
2022/11/04 06:33:05;;;;;;;1.30;1.20;;;;;;;11.40;83.77;94762.94;5054423;28;20243;-81
2022/11/04 06:35:33;;;;;;;1.37;0.80;;;;;;;11.35;82.91;94767.94;5054339;28;20200;-80
2022/11/04 06:38:00;;;;;;;1.33;0.93;;;;;;;11.46;81.73;94774.25;5055876;28;20224;-81
2022/11/04 06:40:27;;;;;;;1.97;0.90;;;;;;;11.39;82.74;94781.97;5071805;28;20196;-81
2022/11/04 06:42:53;;;;;;;1.20;1.10;;;;;;;11.45;81.77;94780.41;5072015;28;20204;-80
2022/11/04 06:45:20;;;;;;;0.87;0.80;;;;;;;11.43;82.87;94775.44;5072038;28;20229;-81
2022/11/04 06:47:46;;;;;;;1.10;1.00;;;;;;;11.38;83.57;94786.34;5072135;28;20229;-80
2022/11/04 06:50:13;;;;;;;1.23;0.97;;;;;;;11.42;82.23;94791.91;5061238;28;20205;-80
2022/11/04 06:52:41;;;;;;;1.43;1.17;;;;;;;11.44;82.18;94789.91;5055863;28;20201;-81
2022/11/04 06:55:09;;;;;;;1.50;1.03;;;;;;;11.41;83.01;94790.31;5052029;28;20697;-81
2022/11/04 06:57:35;;;;;;;2.47;1.00;;;;;;;11.37;83.07;94783.97;5052211;28;20568;-80
2022/11/04 07:00:02;;;;;;;2.57;1.00;;;;;;;11.37;82.22;94768.50;5050857;28;20221;-80
2022/11/04 07:02:29;;;;;;;1.07;0.97;;;;;;;11.32;85.05;94763.19;5052078;28;20201;-80
2022/11/04 07:04:55;;;;;;;0.90;0.80;;;;;;;11.31;84.46;94759.00;5051442;28;20221;-81
2022/11/04 07:07:21;;;;;;;1.37;1.13;;;;;;;11.21;86.89;94767.16;5050910;28;20237;-80
2022/11/04 07:09:49;;;;;;;3.13;1.10;;;;;;;11.21;87.17;94758.63;5054959;28;20212;-81
2022/11/04 07:12:16;;;;;;;3.07;1.07;;;;;;;11.07;90.33;94763.78;5072038;28;20211;-80
2022/11/04 07:14:42;;;;;;;1.10;1.00;;;;;;;11.14;87.51;94768.94;5063252;28;20577;-81
2022/11/04 07:17:08;;;;;;;1.67;1.13;;;;;;;11.16;86.62;94790.13;5055254;28;20204;-81
2022/11/04 07:19:35;;;;;;;1.83;0.90;;;;;;;11.17;86.69;94781.41;5070841;28;20208;-79
2022/11/04 07:22:01;;;;;;;1.40;1.10;;;;;;;11.24;86.41;94784.00;5068562;28;20213;-81
2022/11/04 07:24:28;;;;;;;2.40;1.10;;;;;;;11.31;86.63;94795.88;5057418;28;20284;-80
2022/11/04 07:26:56;;;;;;;1.80;0.90;;;;;;;11.31;86.17;94801.03;5059905;28;20232;-80
2022/11/04 07:29:24;;;;;;;1.20;1.10;;;;;;;11.28;86.44;94801.44;5059631;28;20205;-81
2022/11/04 07:31:50;;;;;;;1.33;1.03;;;;;;;11.24;86.67;94818.28;5051915;28;20229;-81
2022/11/04 07:34:17;;;;;;;1.10;1.00;;;;;;;11.29;85.24;94820.28;5051904;28;20225;-80
2022/11/04 07:36:43;;;;;;;1.10;0.90;;;;;;;11.31;84.31;94826.00;5064039;28;20205;-81
2022/11/04 07:39:09;;;;;;;1.83;1.03;;;;;;;11.33;84.66;94824.03;5050806;28;20205;-81
2022/11/04 07:41:36;;;;;;;2.67;1.10;;;;;;;11.31;84.31;94813.94;5051164;28;20194;-80
2022/11/04 07:44:04;;;;;;;1.30;1.00;;;;;;;11.34;84.37;94808.38;5051166;28;20224;-80
2022/11/04 07:46:31;;;;;;;1.10;1.00;;;;;;;11.34;84.73;94808.38;5051407;28;20232;-80
2022/11/04 07:48:58;;;;;;;1.47;1.17;;;;;;;11.30;85.38;94809.75;5051245;28;20208;-81
2022/11/04 07:51:26;;;;;;;1.43;1.20;;;;;;;11.29;84.83;94815.91;5050563;28;20236;-79
2022/11/04 07:53:52;;;;;;;2.07;1.00;;;;;;;11.32;84.21;94828.41;5050838;28;20224;-81
2022/11/04 07:56:19;;;;;;;2.83;1.10;;;;;;;11.35;84.27;94843.44;5051233;28;20202;-80
2022/11/04 07:58:45;;;;;;;1.77;0.90;;;;;;;11.32;83.95;94845.66;5051131;28;20233;-81
2022/11/04 08:01:16;;;;;;;1.93;1.20;;;;;;;11.29;83.23;94848.63;5051423;28;20857;-80
2022/11/04 08:03:42;;;;;;;3.53;1.20;;;;;;;11.30;83.50;94837.31;5051181;28;20229;-81
2022/11/04 08:06:10;;;;;;;2.80;1.13;;;;;;;11.28;82.93;94834.13;5051442;28;20862;-80
2022/11/04 08:08:37;;;;;;;1.40;1.10;;;;;;;11.29;82.54;94828.00;5051336;28;20208;-80
2022/11/04 08:11:06;;;;;;;1.67;1.20;;;;;;;11.28;82.59;94822.06;5065478;28;20197;-80
2022/11/04 08:13:34;;;;;;;1.70;1.10;;;;;;;11.23;82.94;94818.47;5066795;28;20232;-81
2022/11/04 08:16:02;;;;;;;2.20;1.37;;;;;;;11.19;82.84;94815.50;5071848;28;20208;-82
2022/11/04 08:18:30;;;;;;;1.97;0.83;;;;;;;11.22;82.87;94804.78;5071640;28;20688;-80
2022/11/04 08:20:56;;;;;;;1.60;1.10;;;;;;;11.23;82.99;94803.00;5071131;28;20204;-81
2022/11/04 08:23:24;;;;;;;1.53;0.90;;;;;;;11.21;83.57;94803.22;5071100;28;20225;-80
2022/11/04 08:25:50;;;;;;;0.90;0.90;;;;;;;11.20;83.06;94795.69;5071260;28;20224;-81
2022/11/04 08:28:17;;;;;;;1.00;1.00;;;;;;;11.21;83.11;94787.75;5069820;28;20203;-81
2022/11/04 08:30:52;;;;;;;1.80;1.00;;;;;;;11.22;83.30;94781.59;5051580;28;20236;-80
2022/11/04 08:33:19;;;;;;;3.63;1.20;;;;;;;11.23;82.99;94785.78;5051225;28;20317;-81
2022/11/04 08:35:47;;;;;;;1.70;1.00;;;;;;;11.19;83.44;94776.06;5058011;28;20201;-82
2022/11/04 08:38:13;;;;;;;1.10;1.00;;;;;;;11.16;83.69;94779.06;5059056;28;20829;-82
2022/11/04 08:40:40;;;;;;;2.17;1.30;;;;;;;11.11;83.21;94778.84;5050440;28;20205;-81
2022/11/04 08:43:07;;;;;;;1.20;1.10;;;;;;;11.01;82.88;94780.03;5050943;28;20261;-81
2022/11/04 08:45:33;;;;;;;1.10;0.97;;;;;;;10.98;83.21;94777.06;5051361;28;20227;-81
2022/11/04 08:48:00;;;;;;;1.20;1.10;;;;;;;10.96;83.04;94773.91;5051322;28;20684;-82
2022/11/04 08:50:26;;;;;;;1.53;1.20;;;;;;;10.95;83.32;94767.19;5050105;28;20208;-82
2022/11/04 08:52:54;;;;;;;0.90;0.80;;;;;;;10.94;82.79;94760.44;5050245;28;20259;-81
2022/11/04 08:55:21;;;;;;;1.00;1.00;;;;;;;10.88;82.28;94744.00;5050551;28;20639;-80
2022/11/04 08:57:47;;;;;;;1.00;1.00;;;;;;;10.97;82.44;94747.94;5050627;28;20208;-80
2022/11/04 09:00:15;;;;;;;1.00;0.97;;;;;;;11.00;82.60;94746.75;5050442;28;20208;-81
2022/11/04 09:02:41;;;;;;;1.37;1.03;;;;;;;11.08;83.05;94752.50;5050772;28;20636;-81
2022/11/04 09:05:08;;;;;;;1.03;1.03;;;;;;;11.03;82.72;94764.38;5051166;28;20426;-82
2022/11/04 09:07:36;;;;;;;1.37;1.00;;;;;;;11.08;82.27;94762.81;5063015;28;20236;-82
2022/11/04 09:10:05;;;;;;;1.10;1.00;;;;;;;11.10;83.15;94752.31;5070883;28;20197;-80
2022/11/04 09:12:32;;;;;;;1.40;1.07;;;;;;;10.98;83.15;94746.94;5070394;28;20253;-79
2022/11/04 09:14:58;;;;;;;1.10;1.00;;;;;;;11.01;82.65;94740.59;5070404;28;20228;-82
2022/11/04 09:17:24;;;;;;;1.10;1.03;;;;;;;11.06;83.32;94740.81;5070574;28;20197;-81
2022/11/04 09:19:51;;;;;;;1.57;1.20;;;;;;;11.05;83.52;94745.16;5070182;28;20236;-82
2022/11/04 09:22:17;;;;;;;1.77;1.60;;;;;;;11.12;84.49;94749.53;5065212;28;20213;-81
2022/11/04 09:24:44;;;;;;;1.73;1.20;;;;;;;11.10;84.54;94752.31;5050190;28;20229;-81
2022/11/04 09:27:12;;;;;;;1.93;1.40;;;;;;;11.17;84.31;94749.69;5050310;28;20622;-82
2022/11/04 09:29:39;;;;;;;1.63;1.50;;;;;;;11.19;84.47;94745.94;5049551;28;20198;-81
2022/11/04 09:32:07;;;;;;;1.37;1.27;;;;;;;11.13;85.12;94745.97;5050754;28;20223;-82
2022/11/04 09:34:33;;;;;;;1.43;1.17;;;;;;;11.11;85.25;94753.88;5050106;28;20225;-81
2022/11/04 09:37:00;;;;;;;1.77;1.40;;;;;;;11.16;85.40;94743.75;5067034;28;20197;-81
2022/11/04 09:39:27;;;;;;;2.00;1.30;;;;;;;11.20;85.35;94750.09;5070074;28;20208;-81
2022/11/04 09:42:11;;;;;;;1.30;1.20;;;;;;;11.17;85.68;94757.44;5069299;28;20201;-81
2022/11/04 09:44:48;;;;;;;1.53;1.20;;;;;;;11.10;85.45;94757.44;5072357;28;20226;-82
2022/11/04 09:47:15;;;;;;;1.90;1.70;;;;;;;10.97;85.71;94773.69;5073727;28;20228;-82
2022/11/04 09:49:47;;;;;;;1.23;1.00;;;;;;;10.86;82.98;94781.22;5073889;28;20285;-82
2022/11/04 09:52:18;;;;;;;2.00;1.00;;;;;;;10.85;81.02;94770.13;5072866;28;20197;-80
2022/11/04 09:54:53;;;;;;;0.97;0.80;;;;;;;10.87;80.54;94768.16;5072989;28;20591;-82
2022/11/04 09:57:20;;;;;;;2.23;0.90;;;;;;;10.86;82.03;94776.88;5073880;28;20196;-82
2022/11/04 09:59:48;;;;;;;1.40;0.90;;;;;;;10.86;82.13;94768.34;5073588;28;20204;-80
2022/11/04 10:02:54;;;;;;;1.80;1.30;;;;;;;10.90;81.32;94770.34;5070841;28;20216;-80
2022/11/04 10:05:39;;;;;;;2.33;1.10;;;;;;;10.97;82.14;94750.50;5050113;28;20203;-82
2022/11/04 10:08:35;;;;;;;1.50;1.40;;;;;;;11.02;83.02;94744.75;5057999;28;20220;-81
2022/11/04 10:11:06;;;;;;;1.77;1.50;;;;;;;11.11;83.57;94738.44;5072805;28;20204;-81
2022/11/04 10:13:50;;;;;;;1.70;1.50;;;;;;;11.19;84.19;94727.91;5073183;28;20228;-82
2022/11/04 10:16:44;;;;;;;2.27;1.40;;;;;;;11.15;84.15;94724.16;5072807;28;20204;-81
2022/11/04 10:19:32;;;;;;;2.27;1.60;;;;;;;11.16;85.32;94735.25;5072796;28;20201;-80
2022/11/04 10:22:04;;;;;;;1.60;1.50;;;;;;;11.17;84.57;94742.75;5073038;28;20197;-82
2022/11/04 10:24:41;;;;;;;2.97;1.50;;;;;;;11.26;84.30;94743.34;5073090;28;20274;-81
2022/11/04 10:27:16;;;;;;;1.97;1.50;;;;;;;11.27;83.41;94739.78;5072188;28;20220;-81
2022/11/04 10:29:44;;;;;;;2.93;1.37;;;;;;;11.24;83.56;94732.47;5058410;28;20212;-82
2022/11/04 10:32:17;;;;;;;2.53;1.23;;;;;;;11.24;84.71;94729.88;5053183;28;20673;-81
2022/11/04 10:34:48;;;;;;;1.30;1.20;;;;;;;11.26;83.10;94718.38;5053203;28;20217;-81
2022/11/04 10:37:14;;;;;;;1.67;1.40;;;;;;;11.29;82.84;94715.41;5072202;28;20197;-82
2022/11/04 10:39:44;;;;;;;1.40;1.30;;;;;;;11.34;82.54;94713.03;5072497;28;20205;-82
2022/11/04 10:42:12;;;;;;;1.87;1.40;;;;;;;11.37;82.93;94698.91;5060551;28;20202;-81
2022/11/04 10:44:39;;;;;;;3.27;1.40;;;;;;;11.37;83.31;94691.19;5053046;28;20238;-80
2022/11/04 10:47:19;;;;;;;1.63;1.33;;;;;;;11.38;83.86;94701.28;5053391;28;20217;-80
2022/11/04 10:49:57;;;;;;;2.47;1.67;;;;;;;11.41;84.36;94695.75;5052660;28;20213;-81
2022/11/04 10:52:24;;;;;;;3.10;1.60;;;;;;;11.41;83.29;94692.38;5052514;28;20205;-81
2022/11/04 10:54:51;;;;;;;6.60;1.60;;;;;;;11.45;83.38;94698.72;5052191;28;20222;-80
2022/11/04 10:57:20;;;;;;;2.90;1.70;;;;;;;11.45;84.33;94709.03;5053205;28;20198;-80
2022/11/04 10:59:53;;;;;;;1.70;1.43;;;;;;;11.47;82.86;94696.72;5062768;28;20201;-78
2022/11/04 11:02:43;;;;;;;3.30;1.50;;;;;;;11.54;82.80;94701.88;5072049;28;20291;-80
2022/11/04 11:05:21;;;;;;;1.40;1.30;;;;;;;11.50;84.26;94701.47;5071636;28;20274;-80
2022/11/04 11:07:49;;;;;;;1.70;1.50;;;;;;;11.57;83.39;94701.44;5072657;28;20228;-78
2022/11/04 11:10:19;;;;;;;25.70;11.60;;;;;;;11.47;83.30;94707.03;5071924;28;20731;-80
2022/11/04 11:12:51;;;;;;;20.13;7.63;;;;;;;11.43;85.21;94711.78;5072175;28;20231;-79
2022/11/04 11:15:26;;;;;;;4.37;2.87;;;;;;;11.49;83.21;94710.19;5066998;28;20215;-80
2022/11/04 11:17:59;;;;;;;2.53;1.80;;;;;;;11.54;81.80;94719.91;5053974;28;20755;-79
2022/11/04 11:20:26;;;;;;;1.63;1.30;;;;;;;11.55;80.73;94711.16;5068214;28;20685;-81
2022/11/04 11:22:53;;;;;;;1.57;1.30;;;;;;;11.55;80.18;94718.88;5068146;28;20258;-79
2022/11/04 11:25:26;;;;;;;1.67;1.40;;;;;;;11.56;80.20;94723.06;5067868;28;20276;-80
2022/11/04 11:27:55;;;;;;;1.43;1.20;;;;;;;11.60;80.14;94717.28;5067316;28;20222;-78
2022/11/04 11:30:24;;;;;;;2.87;1.20;;;;;;;11.54;79.73;94717.34;5053702;28;20201;-80
2022/11/04 11:32:56;;;;;;;1.73;1.20;;;;;;;11.55;80.67;94732.56;5054456;28;20224;-79
2022/11/04 11:35:27;;;;;;;1.30;1.20;;;;;;;11.58;80.68;94737.31;5055382;28;20208;-79
2022/11/04 11:37:54;;;;;;;1.77;1.10;;;;;;;11.54;81.48;94743.09;5062028;28;20201;-80
2022/11/04 11:40:30;;;;;;;1.97;1.30;;;;;;;11.36;81.26;94731.63;5039530;28;20216;-80
2022/11/04 11:42:58;;;;;;;2.10;1.33;;;;;;;11.38;81.59;94728.84;5050104;28;20736;-81
2022/11/04 11:45:26;;;;;;;1.70;1.10;;;;;;;11.40;81.18;94740.53;5069714;28;20228;-80
2022/11/04 11:47:57;;;;;;;1.30;1.10;;;;;;;11.35;79.97;94745.50;5065156;28;20221;-79
2022/11/04 11:50:30;;;;;;;1.30;1.20;;;;;;;11.37;80.49;94740.94;5052483;28;20247;-81
2022/11/04 11:53:13;;;;;;;1.77;1.33;;;;;;;11.41;81.31;94744.72;5049265;28;20210;-81
2022/11/04 11:55:46;;;;;;;3.47;1.60;;;;;;;11.38;81.26;94736.59;5064052;28;20205;-80
2022/11/04 11:58:26;;;;;;;1.57;1.40;;;;;;;11.31;81.87;94741.78;5061207;28;20401;-80
2022/11/04 12:00:57;;;;;;;1.60;1.17;;;;;;;11.29;80.83;94736.03;5050948;28;20198;-81
2022/11/04 12:03:31;;;;;;;1.30;1.20;;;;;;;11.34;80.63;94741.38;5050632;28;20225;-80
2022/11/04 12:06:14;;;;;;;1.30;1.20;;;;;;;11.38;81.37;94741.72;5051260;28;20627;-81
2022/11/04 12:08:56;;;;;;;1.40;1.20;;;;;;;11.31;83.61;94735.81;5051091;28;20221;-81
2022/11/04 12:11:33;;;;;;;2.57;1.30;;;;;;;11.25;84.71;94737.41;5051072;28;22237;-80
2022/11/04 12:14:04;;;;;;;1.50;1.40;;;;;;;11.25;85.13;94734.03;5050377;28;20282;-80
2022/11/04 12:16:40;;;;;;;1.40;1.30;;;;;;;11.20;84.98;94734.63;5050853;28;20287;-81
2022/11/04 12:19:21;;;;;;;1.87;1.20;;;;;;;11.21;83.42;94736.22;5050750;28;20197;-82